Edina, MO

8:28 AM CDT on October 21, 2019 (GMT -0500)
Edina, Knox County | | Change Station

Elev 814 ft 40.17 °N, 92.17 °W | Updated 12 seconds ago

Overcast
Overcast
53.8 °F
Feels Like 53.8 °F
N
0.4
Wind Variable Wind from SSE
Gusts 2.5 mph

Today
High -- | Low -- °F
--% Chance of Precip.
Yesterday
High -- | Low -- °F
Precip. -- in
Pressure 29.42 in
Visibility 10.0 miles
Clouds Scattered Clouds 3900 ft
Overcast 4500 ft
Dew Point 51 °F
Humidity 90%
Rainfall 0.00 in
Snow Depth Not available.
7:25 AM 6:20 PM
Waning Gibbous, 50% visible
METAR KIRK 211255Z AUTO 24011G22KT 10SM SCT039 OVC045 12/11 A2942 RMK AO2 PK WND 26029/1215 RAE15 SLP963 P0003 T01220111
Pressure 29.42 in
Visibility 10.0 miles
Clouds Scattered Clouds 3900 ft
Overcast 4500 ft
Dew Point 51 °F
Humidity 90%
Rainfall 0.00 in
Snow Depth Not available.
7:25 AM 6:20 PM
Waning Gibbous, 50% visible
METAR KIRK 211255Z AUTO 24011G22KT 10SM SCT039 OVC045 12/11 A2942 RMK AO2 PK WND 26029/1215 RAE15 SLP963 P0003 T01220111

Get Severe Weather Alerts

Thanks for signing up!

Be on the lookout for a verification email in your inbox.

You'll start receiving the daily forecast at 6 AM.

×

10-Day Weather Forecast

Almanac

Astronomy

Oct. 21, 2019 Rise Set
Actual Time
Civil Twilight
Nautical Twilight
Astronomical Twilight
Moon
Length of Visible Light
Length of Day
Tomorrow will be .
, % of the Moon is Illuminated

Today's Extremes

State Highs State Lows

Community

WunderPhotos

Category 6

Welcome to Category 6. This is the collective home for Weather Underground's featured writeups by Dr. Jeff Masters (right), Bob Henson (left), Chris Burt, and other regular contributors.

Nearby

Air Quality

  Air Quality AQ Index Pollutant
Not available.

Snow Depth

Station Depth Elevation

Earthquake Activity

City Distance Mag. Time & Date
Minimum magnitude displayed is 2.5.

Coastal Water Temperatures

Place Temperature

Stations

Nearby Weather Stations

Station Location Temp. Windchill Dew Point Humidity Wind Precip. Elev Updated Type
                   

Watches & Warnings

There are currently no watches in effect.